sensor_id;sensor_type;location;lat;lon;timestamp;P1;durP1;ratioP1;P2;durP2;ratioP2
44110;SDS011;29774;52.664;5.074;2023-08-30T00:00:05;3.33;;;2.17;;
44110;SDS011;29774;52.664;5.074;2023-08-30T00:02:31;3.50;;;2.40;;
44110;SDS011;29774;52.664;5.074;2023-08-30T00:04:59;4.10;;;1.92;;
44110;SDS011;29774;52.664;5.074;2023-08-30T00:07:25;2.80;;;1.90;;
44110;SDS011;29774;52.664;5.074;2023-08-30T00:09:51;2.83;;;1.90;;
44110;SDS011;29774;52.664;5.074;2023-08-30T00:12:17;2.83;;;1.90;;
44110;SDS011;29774;52.664;5.074;2023-08-30T00:14:42;2.42;;;1.90;;
44110;SDS011;29774;52.664;5.074;2023-08-30T00:17:08;2.90;;;2.10;;
44110;SDS011;29774;52.664;5.074;2023-08-30T00:19:34;3.47;;;2.20;;
44110;SDS011;29774;52.664;5.074;2023-08-30T00:22:00;3.88;;;2.00;;
44110;SDS011;29774;52.664;5.074;2023-08-30T00:24:25;4.20;;;2.20;;
44110;SDS011;29774;52.664;5.074;2023-08-30T00:26:51;3.00;;;2.05;;
44110;SDS011;29774;52.664;5.074;2023-08-30T00:29:17;4.80;;;2.08;;
44110;SDS011;29774;52.664;5.074;2023-08-30T00:31:42;4.43;;;2.50;;
44110;SDS011;29774;52.664;5.074;2023-08-30T00:34:08;3.35;;;2.60;;
44110;SDS011;29774;52.664;5.074;2023-08-30T00:36:33;4.07;;;2.42;;
44110;SDS011;29774;52.664;5.074;2023-08-30T00:38:59;4.50;;;2.65;;
44110;SDS011;29774;52.664;5.074;2023-08-30T00:41:25;3.70;;;2.90;;
44110;SDS011;29774;52.664;5.074;2023-08-30T00:43:50;3.83;;;2.95;;
44110;SDS011;29774;52.664;5.074;2023-08-30T00:46:16;3.10;;;2.50;;
44110;SDS011;29774;52.664;5.074;2023-08-30T00:48:43;3.53;;;3.17;;
44110;SDS011;29774;52.664;5.074;2023-08-30T00:51:09;4.60;;;3.13;;
44110;SDS011;29774;52.664;5.074;2023-08-30T00:53:35;4.20;;;3.30;;
44110;SDS011;29774;52.664;5.074;2023-08-30T00:56:00;4.60;;;3.17;;
44110;SDS011;29774;52.664;5.074;2023-08-30T00:58:26;4.88;;;3.50;;
44110;SDS011;29774;52.664;5.074;2023-08-30T01:00:52;5.70;;;3.50;;
44110;SDS011;29774;52.664;5.074;2023-08-30T01:03:19;5.55;;;3.45;;
44110;SDS011;29774;52.664;5.074;2023-08-30T01:05:46;4.85;;;2.88;;
44110;SDS011;29774;52.664;5.074;2023-08-30T01:08:12;5.63;;;3.20;;
44110;SDS011;29774;52.664;5.074;2023-08-30T01:13:31;5.25;;;3.75;;
44110;SDS011;29774;52.664;5.074;2023-08-30T01:16:01;4.50;;;3.33;;
44110;SDS011;29774;52.664;5.074;2023-08-30T01:18:29;3.97;;;3.55;;
44110;SDS011;29774;52.664;5.074;2023-08-30T01:21:00;3.78;;;2.80;;
44110;SDS011;29774;52.664;5.074;2023-08-30T01:23:42;5.20;;;3.45;;
44110;SDS011;29774;52.664;5.074;2023-08-30T01:28:43;5.20;;;3.53;;
44110;SDS011;29774;52.664;5.074;2023-08-30T01:31:09;4.03;;;3.13;;
44110;SDS011;29774;52.664;5.074;2023-08-30T01:33:38;4.45;;;3.40;;
44110;SDS011;29774;52.664;5.074;2023-08-30T01:36:04;5.47;;;4.07;;
44110;SDS011;29774;52.664;5.074;2023-08-30T01:38:31;6.60;;;3.60;;
44110;SDS011;29774;52.664;5.074;2023-08-30T01:40:57;5.65;;;3.97;;
44110;SDS011;29774;52.664;5.074;2023-08-30T01:43:25;4.60;;;3.92;;
44110;SDS011;29774;52.664;5.074;2023-08-30T01:45:53;6.28;;;3.72;;
44110;SDS011;29774;52.664;5.074;2023-08-30T01:48:21;5.75;;;3.72;;
44110;SDS011;29774;52.664;5.074;2023-08-30T01:50:48;6.35;;;4.03;;
44110;SDS011;29774;52.664;5.074;2023-08-30T01:53:14;4.97;;;3.42;;
44110;SDS011;29774;52.664;5.074;2023-08-30T01:55:40;5.38;;;3.47;;
44110;SDS011;29774;52.664;5.074;2023-08-30T01:58:07;5.40;;;4.00;;
44110;SDS011;29774;52.664;5.074;2023-08-30T02:00:34;4.75;;;3.97;;
44110;SDS011;29774;52.664;5.074;2023-08-30T02:03:06;4.40;;;3.55;;
44110;SDS011;29774;52.664;5.074;2023-08-30T02:05:36;6.72;;;4.00;;
44110;SDS011;29774;52.664;5.074;2023-08-30T02:08:05;4.60;;;3.42;;
44110;SDS011;29774;52.664;5.074;2023-08-30T02:10:34;8.05;;;4.40;;
44110;SDS011;29774;52.664;5.074;2023-08-30T02:13:03;5.35;;;4.50;;
44110;SDS011;29774;52.664;5.074;2023-08-30T02:15:30;7.28;;;5.10;;
44110;SDS011;29774;52.664;5.074;2023-08-30T02:17:58;5.40;;;4.53;;
44110;SDS011;29774;52.664;5.074;2023-08-30T02:20:25;6.40;;;4.45;;
44110;SDS011;29774;52.664;5.074;2023-08-30T02:22:51;6.95;;;4.40;;
44110;SDS011;29774;52.664;5.074;2023-08-30T02:25:16;7.18;;;4.72;;
44110;SDS011;29774;52.664;5.074;2023-08-30T02:27:42;7.60;;;4.45;;
44110;SDS011;29774;52.664;5.074;2023-08-30T02:30:08;7.72;;;4.43;;
44110;SDS011;29774;52.664;5.074;2023-08-30T02:32:34;7.45;;;4.68;;
44110;SDS011;29774;52.664;5.074;2023-08-30T02:34:59;5.93;;;3.92;;
44110;SDS011;29774;52.664;5.074;2023-08-30T02:37:25;7.18;;;4.57;;
44110;SDS011;29774;52.664;5.074;2023-08-30T02:39:51;5.10;;;3.60;;
44110;SDS011;29774;52.664;5.074;2023-08-30T02:42:16;3.67;;;3.15;;
44110;SDS011;29774;52.664;5.074;2023-08-30T02:44:42;4.72;;;4.20;;
44110;SDS011;29774;52.664;5.074;2023-08-30T02:47:08;6.43;;;3.60;;
44110;SDS011;29774;52.664;5.074;2023-08-30T02:49:33;6.72;;;3.08;;
44110;SDS011;29774;52.664;5.074;2023-08-30T02:51:59;3.53;;;2.97;;
44110;SDS011;29774;52.664;5.074;2023-08-30T02:54:25;7.13;;;4.00;;
44110;SDS011;29774;52.664;5.074;2023-08-30T02:56:50;8.40;;;4.53;;
44110;SDS011;29774;52.664;5.074;2023-08-30T02:59:16;5.68;;;4.47;;
44110;SDS011;29774;52.664;5.074;2023-08-30T03:01:42;6.50;;;4.45;;
44110;SDS011;29774;52.664;5.074;2023-08-30T03:04:08;4.78;;;3.83;;
44110;SDS011;29774;52.664;5.074;2023-08-30T03:06:34;5.53;;;4.03;;
44110;SDS011;29774;52.664;5.074;2023-08-30T03:09:00;4.90;;;4.20;;
44110;SDS011;29774;52.664;5.074;2023-08-30T03:11:26;6.43;;;4.43;;
44110;SDS011;29774;52.664;5.074;2023-08-30T03:13:55;7.90;;;4.85;;
44110;SDS011;29774;52.664;5.074;2023-08-30T03:16:20;6.35;;;4.75;;
44110;SDS011;29774;52.664;5.074;2023-08-30T03:18:46;7.25;;;3.97;;
44110;SDS011;29774;52.664;5.074;2023-08-30T03:21:12;5.22;;;3.65;;
44110;SDS011;29774;52.664;5.074;2023-08-30T03:23:39;4.53;;;3.90;;
44110;SDS011;29774;52.664;5.074;2023-08-30T03:28:38;5.38;;;3.88;;
44110;SDS011;29774;52.664;5.074;2023-08-30T03:31:11;5.60;;;3.85;;
44110;SDS011;29774;52.664;5.074;2023-08-30T03:33:40;5.88;;;3.42;;
44110;SDS011;29774;52.664;5.074;2023-08-30T03:36:12;6.18;;;3.90;;
44110;SDS011;29774;52.664;5.074;2023-08-30T03:38:39;5.40;;;3.67;;
44110;SDS011;29774;52.664;5.074;2023-08-30T03:41:05;7.57;;;4.13;;
44110;SDS011;29774;52.664;5.074;2023-08-30T03:43:31;6.10;;;3.83;;
44110;SDS011;29774;52.664;5.074;2023-08-30T03:45:58;6.75;;;4.47;;
44110;SDS011;29774;52.664;5.074;2023-08-30T03:48:24;6.60;;;4.57;;
44110;SDS011;29774;52.664;5.074;2023-08-30T03:50:50;7.45;;;4.78;;
44110;SDS011;29774;52.664;5.074;2023-08-30T03:53:16;5.55;;;4.38;;
44110;SDS011;29774;52.664;5.074;2023-08-30T03:55:41;7.07;;;4.70;;
44110;SDS011;29774;52.664;5.074;2023-08-30T03:58:07;6.25;;;3.97;;
44110;SDS011;29774;52.664;5.074;2023-08-30T04:00:35;5.47;;;4.18;;
44110;SDS011;29774;52.664;5.074;2023-08-30T04:03:02;5.20;;;4.30;;
44110;SDS011;29774;52.664;5.074;2023-08-30T04:05:31;6.82;;;3.97;;
44110;SDS011;29774;52.664;5.074;2023-08-30T04:07:58;5.68;;;4.15;;
44110;SDS011;29774;52.664;5.074;2023-08-30T04:10:24;5.32;;;4.22;;
44110;SDS011;29774;52.664;5.074;2023-08-30T04:12:50;7.75;;;5.22;;
44110;SDS011;29774;52.664;5.074;2023-08-30T04:15:15;5.45;;;3.70;;
44110;SDS011;29774;52.664;5.074;2023-08-30T04:17:41;8.68;;;4.47;;
44110;SDS011;29774;52.664;5.074;2023-08-30T04:20:07;7.70;;;5.20;;
44110;SDS011;29774;52.664;5.074;2023-08-30T04:22:35;7.20;;;3.95;;
44110;SDS011;29774;52.664;5.074;2023-08-30T04:25:01;6.13;;;4.18;;
44110;SDS011;29774;52.664;5.074;2023-08-30T04:27:27;7.35;;;4.80;;
44110;SDS011;29774;52.664;5.074;2023-08-30T04:29:53;6.82;;;4.78;;
44110;SDS011;29774;52.664;5.074;2023-08-30T04:32:19;7.95;;;4.50;;
44110;SDS011;29774;52.664;5.074;2023-08-30T04:34:44;7.03;;;5.20;;
44110;SDS011;29774;52.664;5.074;2023-08-30T04:37:10;7.00;;;5.47;;
44110;SDS011;29774;52.664;5.074;2023-08-30T04:39:35;7.07;;;4.43;;
44110;SDS011;29774;52.664;5.074;2023-08-30T04:42:01;6.88;;;4.38;;
44110;SDS011;29774;52.664;5.074;2023-08-30T04:44:28;9.93;;;5.60;;
44110;SDS011;29774;52.664;5.074;2023-08-30T04:46:54;6.82;;;5.25;;
44110;SDS011;29774;52.664;5.074;2023-08-30T04:49:20;8.05;;;5.13;;
44110;SDS011;29774;52.664;5.074;2023-08-30T04:51:46;10.05;;;6.13;;
44110;SDS011;29774;52.664;5.074;2023-08-30T04:54:12;4.72;;;4.22;;
44110;SDS011;29774;52.664;5.074;2023-08-30T04:56:39;7.00;;;4.15;;
44110;SDS011;29774;52.664;5.074;2023-08-30T04:59:04;8.88;;;5.28;;
44110;SDS011;29774;52.664;5.074;2023-08-30T05:01:30;8.15;;;5.28;;
44110;SDS011;29774;52.664;5.074;2023-08-30T05:03:56;6.63;;;4.18;;
44110;SDS011;29774;52.664;5.074;2023-08-30T05:06:21;6.72;;;5.85;;
44110;SDS011;29774;52.664;5.074;2023-08-30T05:08:47;11.18;;;6.05;;
44110;SDS011;29774;52.664;5.074;2023-08-30T05:11:13;6.15;;;4.88;;
44110;SDS011;29774;52.664;5.074;2023-08-30T05:13:38;6.10;;;4.57;;
44110;SDS011;29774;52.664;5.074;2023-08-30T05:16:04;9.15;;;5.80;;
44110;SDS011;29774;52.664;5.074;2023-08-30T05:18:30;7.93;;;5.93;;
44110;SDS011;29774;52.664;5.074;2023-08-30T05:20:55;10.23;;;5.72;;
44110;SDS011;29774;52.664;5.074;2023-08-30T05:23:21;7.32;;;5.78;;
44110;SDS011;29774;52.664;5.074;2023-08-30T05:25:46;8.77;;;5.97;;
44110;SDS011;29774;52.664;5.074;2023-08-30T05:28:12;7.53;;;5.20;;
44110;SDS011;29774;52.664;5.074;2023-08-30T05:30:40;7.63;;;6.18;;
44110;SDS011;29774;52.664;5.074;2023-08-30T05:33:06;7.28;;;5.45;;
44110;SDS011;29774;52.664;5.074;2023-08-30T05:35:32;11.88;;;7.03;;
44110;SDS011;29774;52.664;5.074;2023-08-30T05:37:58;9.50;;;6.70;;
44110;SDS011;29774;52.664;5.074;2023-08-30T05:40:23;7.50;;;5.10;;
44110;SDS011;29774;52.664;5.074;2023-08-30T05:42:49;7.85;;;4.40;;
44110;SDS011;29774;52.664;5.074;2023-08-30T05:45:15;7.55;;;4.95;;
44110;SDS011;29774;52.664;5.074;2023-08-30T05:47:41;6.57;;;3.65;;
44110;SDS011;29774;52.664;5.074;2023-08-30T05:50:07;6.22;;;4.50;;
44110;SDS011;29774;52.664;5.074;2023-08-30T05:52:33;7.15;;;4.90;;
44110;SDS011;29774;52.664;5.074;2023-08-30T05:54:58;8.52;;;4.80;;
44110;SDS011;29774;52.664;5.074;2023-08-30T05:57:24;6.13;;;3.80;;
44110;SDS011;29774;52.664;5.074;2023-08-30T05:59:50;5.53;;;4.22;;
44110;SDS011;29774;52.664;5.074;2023-08-30T06:02:16;6.85;;;4.30;;
44110;SDS011;29774;52.664;5.074;2023-08-30T06:04:42;5.75;;;4.25;;
44110;SDS011;29774;52.664;5.074;2023-08-30T06:07:07;7.15;;;4.90;;
44110;SDS011;29774;52.664;5.074;2023-08-30T06:09:33;4.80;;;3.17;;
44110;SDS011;29774;52.664;5.074;2023-08-30T06:11:59;5.57;;;3.60;;
44110;SDS011;29774;52.664;5.074;2023-08-30T06:14:24;7.95;;;4.90;;
44110;SDS011;29774;52.664;5.074;2023-08-30T06:16:50;5.95;;;3.92;;
44110;SDS011;29774;52.664;5.074;2023-08-30T06:19:16;7.13;;;4.95;;
44110;SDS011;29774;52.664;5.074;2023-08-30T06:21:41;8.93;;;4.82;;
44110;SDS011;29774;52.664;5.074;2023-08-30T06:24:07;6.80;;;5.63;;
44110;SDS011;29774;52.664;5.074;2023-08-30T06:26:32;8.43;;;4.90;;
44110;SDS011;29774;52.664;5.074;2023-08-30T06:28:58;7.90;;;5.03;;
44110;SDS011;29774;52.664;5.074;2023-08-30T06:31:24;3.78;;;2.85;;
44110;SDS011;29774;52.664;5.074;2023-08-30T06:33:49;9.82;;;4.10;;
44110;SDS011;29774;52.664;5.074;2023-08-30T06:36:15;7.03;;;4.97;;
44110;SDS011;29774;52.664;5.074;2023-08-30T06:38:42;6.35;;;3.55;;
44110;SDS011;29774;52.664;5.074;2023-08-30T06:41:08;5.93;;;3.72;;
44110;SDS011;29774;52.664;5.074;2023-08-30T06:43:34;6.60;;;3.75;;
44110;SDS011;29774;52.664;5.074;2023-08-30T06:45:59;8.65;;;4.90;;
44110;SDS011;29774;52.664;5.074;2023-08-30T06:48:25;5.53;;;4.00;;
44110;SDS011;29774;52.664;5.074;2023-08-30T06:50:51;4.82;;;3.40;;
44110;SDS011;29774;52.664;5.074;2023-08-30T06:53:16;9.18;;;4.90;;
44110;SDS011;29774;52.664;5.074;2023-08-30T06:55:42;6.28;;;3.40;;
44110;SDS011;29774;52.664;5.074;2023-08-30T06:58:08;4.70;;;4.07;;
44110;SDS011;29774;52.664;5.074;2023-08-30T07:00:33;5.78;;;4.35;;
44110;SDS011;29774;52.664;5.074;2023-08-30T07:02:59;8.10;;;4.82;;
44110;SDS011;29774;52.664;5.074;2023-08-30T07:05:25;7.32;;;5.10;;
44110;SDS011;29774;52.664;5.074;2023-08-30T07:07:50;9.20;;;5.93;;
44110;SDS011;29774;52.664;5.074;2023-08-30T07:10:16;7.10;;;4.75;;
44110;SDS011;29774;52.664;5.074;2023-08-30T07:12:42;8.18;;;5.20;;
44110;SDS011;29774;52.664;5.074;2023-08-30T07:15:07;6.50;;;4.88;;
44110;SDS011;29774;52.664;5.074;2023-08-30T07:17:33;8.98;;;5.25;;
44110;SDS011;29774;52.664;5.074;2023-08-30T07:19:59;7.18;;;4.68;;
44110;SDS011;29774;52.664;5.074;2023-08-30T07:22:26;8.57;;;5.35;;
44110;SDS011;29774;52.664;5.074;2023-08-30T07:24:51;6.95;;;5.35;;
44110;SDS011;29774;52.664;5.074;2023-08-30T07:27:17;7.28;;;5.82;;
44110;SDS011;29774;52.664;5.074;2023-08-30T07:29:43;11.35;;;6.80;;
44110;SDS011;29774;52.664;5.074;2023-08-30T07:32:08;10.25;;;6.13;;
44110;SDS011;29774;52.664;5.074;2023-08-30T07:34:34;9.98;;;5.95;;
44110;SDS011;29774;52.664;5.074;2023-08-30T07:37:00;9.23;;;5.60;;
44110;SDS011;29774;52.664;5.074;2023-08-30T07:39:26;8.43;;;5.88;;
44110;SDS011;29774;52.664;5.074;2023-08-30T07:41:52;6.13;;;4.72;;
44110;SDS011;29774;52.664;5.074;2023-08-30T07:44:18;7.57;;;4.70;;
44110;SDS011;29774;52.664;5.074;2023-08-30T07:46:45;6.80;;;3.97;;
44110;SDS011;29774;52.664;5.074;2023-08-30T07:49:11;4.93;;;4.13;;
44110;SDS011;29774;52.664;5.074;2023-08-30T07:51:36;7.10;;;4.68;;
44110;SDS011;29774;52.664;5.074;2023-08-30T07:54:02;8.27;;;4.50;;
44110;SDS011;29774;52.664;5.074;2023-08-30T07:56:28;6.47;;;4.97;;
44110;SDS011;29774;52.664;5.074;2023-08-30T07:58:54;9.10;;;5.30;;
44110;SDS011;29774;52.664;5.074;2023-08-30T08:01:20;6.93;;;4.85;;
44110;SDS011;29774;52.664;5.074;2023-08-30T08:03:45;7.43;;;4.70;;
44110;SDS011;29774;52.664;5.074;2023-08-30T08:06:12;6.88;;;4.82;;
44110;SDS011;29774;52.664;5.074;2023-08-30T08:08:37;6.72;;;4.22;;
44110;SDS011;29774;52.664;5.074;2023-08-30T08:11:03;6.95;;;4.40;;
44110;SDS011;29774;52.664;5.074;2023-08-30T08:13:28;8.95;;;4.70;;
44110;SDS011;29774;52.664;5.074;2023-08-30T08:15:57;6.45;;;4.88;;
44110;SDS011;29774;52.664;5.074;2023-08-30T08:18:23;6.00;;;4.35;;
44110;SDS011;29774;52.664;5.074;2023-08-30T08:20:49;5.57;;;4.03;;
44110;SDS011;29774;52.664;5.074;2023-08-30T08:23:15;5.60;;;4.10;;
44110;SDS011;29774;52.664;5.074;2023-08-30T08:25:40;5.55;;;4.32;;
44110;SDS011;29774;52.664;5.074;2023-08-30T08:28:06;6.10;;;4.07;;
44110;SDS011;29774;52.664;5.074;2023-08-30T08:30:32;3.72;;;3.22;;
44110;SDS011;29774;52.664;5.074;2023-08-30T08:32:57;6.45;;;4.47;;
44110;SDS011;29774;52.664;5.074;2023-08-30T08:35:23;6.32;;;4.18;;
44110;SDS011;29774;52.664;5.074;2023-08-30T08:37:49;6.28;;;4.90;;
44110;SDS011;29774;52.664;5.074;2023-08-30T08:40:15;8.07;;;4.47;;
44110;SDS011;29774;52.664;5.074;2023-08-30T08:42:41;4.78;;;4.28;;
44110;SDS011;29774;52.664;5.074;2023-08-30T08:45:08;5.47;;;4.40;;
44110;SDS011;29774;52.664;5.074;2023-08-30T08:47:36;6.18;;;4.50;;
44110;SDS011;29774;52.664;5.074;2023-08-30T08:50:03;6.20;;;4.35;;
44110;SDS011;29774;52.664;5.074;2023-08-30T08:52:29;5.20;;;4.15;;
44110;SDS011;29774;52.664;5.074;2023-08-30T08:54:55;6.43;;;4.63;;
44110;SDS011;29774;52.664;5.074;2023-08-30T08:57:22;6.97;;;4.13;;
44110;SDS011;29774;52.664;5.074;2023-08-30T08:59:48;8.52;;;4.43;;
44110;SDS011;29774;52.664;5.074;2023-08-30T09:02:15;6.40;;;4.40;;
44110;SDS011;29774;52.664;5.074;2023-08-30T09:04:41;5.00;;;4.18;;
44110;SDS011;29774;52.664;5.074;2023-08-30T09:07:06;5.30;;;4.10;;
44110;SDS011;29774;52.664;5.074;2023-08-30T09:09:33;4.80;;;4.32;;
44110;SDS011;29774;52.664;5.074;2023-08-30T09:11:59;4.72;;;3.25;;
44110;SDS011;29774;52.664;5.074;2023-08-30T09:14:24;5.32;;;4.05;;
44110;SDS011;29774;52.664;5.074;2023-08-30T09:16:57;4.80;;;3.97;;
44110;SDS011;29774;52.664;5.074;2023-08-30T09:19:25;5.43;;;4.00;;
44110;SDS011;29774;52.664;5.074;2023-08-30T09:21:52;4.65;;;3.60;;
44110;SDS011;29774;52.664;5.074;2023-08-30T09:24:18;5.07;;;4.03;;
44110;SDS011;29774;52.664;5.074;2023-08-30T09:26:51;5.40;;;4.20;;
44110;SDS011;29774;52.664;5.074;2023-08-30T09:29:18;5.78;;;3.78;;
44110;SDS011;29774;52.664;5.074;2023-08-30T09:31:45;6.45;;;3.50;;
44110;SDS011;29774;52.664;5.074;2023-08-30T09:34:11;4.03;;;3.63;;
44110;SDS011;29774;52.664;5.074;2023-08-30T09:36:38;4.20;;;3.63;;
44110;SDS011;29774;52.664;5.074;2023-08-30T09:39:05;3.30;;;2.80;;
44110;SDS011;29774;52.664;5.074;2023-08-30T09:41:35;3.35;;;2.60;;
44110;SDS011;29774;52.664;5.074;2023-08-30T09:44:14;3.25;;;2.67;;
44110;SDS011;29774;52.664;5.074;2023-08-30T09:46:45;3.10;;;2.78;;
44110;SDS011;29774;52.664;5.074;2023-08-30T09:49:24;4.35;;;2.47;;
44110;SDS011;29774;52.664;5.074;2023-08-30T09:51:51;2.88;;;2.60;;
44110;SDS011;29774;52.664;5.074;2023-08-30T09:54:19;6.00;;;3.38;;
44110;SDS011;29774;52.664;5.074;2023-08-30T09:56:46;3.92;;;2.72;;
44110;SDS011;29774;52.664;5.074;2023-08-30T09:59:13;3.03;;;2.72;;
44110;SDS011;29774;52.664;5.074;2023-08-30T10:01:41;3.13;;;2.83;;
44110;SDS011;29774;52.664;5.074;2023-08-30T10:04:08;3.80;;;3.42;;
44110;SDS011;29774;52.664;5.074;2023-08-30T10:06:35;3.25;;;2.95;;
44110;SDS011;29774;52.664;5.074;2023-08-30T10:09:01;3.10;;;2.90;;
44110;SDS011;29774;52.664;5.074;2023-08-30T10:11:32;3.28;;;2.97;;
44110;SDS011;29774;52.664;5.074;2023-08-30T10:13:59;3.78;;;3.17;;
44110;SDS011;29774;52.664;5.074;2023-08-30T10:16:26;3.17;;;2.88;;
44110;SDS011;29774;52.664;5.074;2023-08-30T10:18:59;3.83;;;3.35;;
44110;SDS011;29774;52.664;5.074;2023-08-30T10:21:29;3.70;;;2.80;;
44110;SDS011;29774;52.664;5.074;2023-08-30T10:23:55;3.08;;;2.83;;
44110;SDS011;29774;52.664;5.074;2023-08-30T10:26:22;4.15;;;3.17;;
44110;SDS011;29774;52.664;5.074;2023-08-30T10:28:49;2.75;;;2.38;;
44110;SDS011;29774;52.664;5.074;2023-08-30T10:31:18;3.20;;;2.35;;
44110;SDS011;29774;52.664;5.074;2023-08-30T10:33:46;2.05;;;1.85;;
44110;SDS011;29774;52.664;5.074;2023-08-30T10:36:25;1.90;;;1.38;;
44110;SDS011;29774;52.664;5.074;2023-08-30T10:38:54;1.70;;;1.60;;
44110;SDS011;29774;52.664;5.074;2023-08-30T10:41:24;2.25;;;2.05;;
44110;SDS011;29774;52.664;5.074;2023-08-30T10:43:51;1.98;;;1.77;;
44110;SDS011;29774;52.664;5.074;2023-08-30T10:46:28;3.17;;;2.53;;
44110;SDS011;29774;52.664;5.074;2023-08-30T10:48:55;2.47;;;2.28;;
44110;SDS011;29774;52.664;5.074;2023-08-30T10:51:34;5.43;;;2.78;;
44110;SDS011;29774;52.664;5.074;2023-08-30T10:54:09;4.93;;;2.10;;
44110;SDS011;29774;52.664;5.074;2023-08-30T10:56:48;2.25;;;1.63;;
44110;SDS011;29774;52.664;5.074;2023-08-30T10:59:22;4.13;;;1.77;;
44110;SDS011;29774;52.664;5.074;2023-08-30T11:01:48;2.17;;;1.50;;
44110;SDS011;29774;52.664;5.074;2023-08-30T11:04:17;3.25;;;1.40;;
44110;SDS011;29774;52.664;5.074;2023-08-30T11:06:44;2.83;;;1.27;;
44110;SDS011;29774;52.664;5.074;2023-08-30T11:09:15;4.13;;;1.60;;
44110;SDS011;29774;52.664;5.074;2023-08-30T11:11:48;3.38;;;1.45;;
44110;SDS011;29774;52.664;5.074;2023-08-30T11:14:15;1.60;;;1.20;;
44110;SDS011;29774;52.664;5.074;2023-08-30T11:16:41;4.85;;;1.67;;
44110;SDS011;29774;52.664;5.074;2023-08-30T11:19:07;2.00;;;1.25;;
44110;SDS011;29774;52.664;5.074;2023-08-30T11:21:37;2.47;;;1.10;;
44110;SDS011;29774;52.664;5.074;2023-08-30T11:24:05;2.28;;;1.20;;
44110;SDS011;29774;52.664;5.074;2023-08-30T11:26:32;2.28;;;1.00;;
44110;SDS011;29774;52.664;5.074;2023-08-30T11:28:58;3.17;;;1.13;;
44110;SDS011;29774;52.664;5.074;2023-08-30T11:31:29;2.75;;;1.10;;
44110;SDS011;29774;52.664;5.074;2023-08-30T11:33:55;1.38;;;1.08;;
44110;SDS011;29774;52.664;5.074;2023-08-30T11:36:23;2.83;;;1.30;;
44110;SDS011;29774;52.664;5.074;2023-08-30T11:38:51;2.00;;;0.98;;
44110;SDS011;29774;52.664;5.074;2023-08-30T11:41:19;6.15;;;1.58;;
44110;SDS011;29774;52.664;5.074;2023-08-30T11:43:47;3.85;;;1.13;;
44110;SDS011;29774;52.664;5.074;2023-08-30T11:46:13;5.32;;;1.33;;
44110;SDS011;29774;52.664;5.074;2023-08-30T11:48:41;2.70;;;1.30;;
44110;SDS011;29774;52.664;5.074;2023-08-30T11:51:07;3.58;;;1.15;;
44110;SDS011;29774;52.664;5.074;2023-08-30T11:53:36;2.70;;;1.02;;
44110;SDS011;29774;52.664;5.074;2023-08-30T11:56:02;2.95;;;1.20;;
44110;SDS011;29774;52.664;5.074;2023-08-30T11:58:32;3.70;;;0.80;;
44110;SDS011;29774;52.664;5.074;2023-08-30T12:00:59;1.00;;;0.73;;
44110;SDS011;29774;52.664;5.074;2023-08-30T12:03:26;2.33;;;1.13;;
44110;SDS011;29774;52.664;5.074;2023-08-30T12:05:53;4.80;;;1.10;;
44110;SDS011;29774;52.664;5.074;2023-08-30T12:08:26;2.65;;;1.23;;
44110;SDS011;29774;52.664;5.074;2023-08-30T12:10:56;4.20;;;1.40;;
44110;SDS011;29774;52.664;5.074;2023-08-30T12:13:28;3.13;;;1.20;;
44110;SDS011;29774;52.664;5.074;2023-08-30T12:15:56;4.32;;;1.38;;
44110;SDS011;29774;52.664;5.074;2023-08-30T12:18:22;1.65;;;0.65;;
44110;SDS011;29774;52.664;5.074;2023-08-30T12:20:57;2.28;;;0.90;;
44110;SDS011;29774;52.664;5.074;2023-08-30T12:23:23;2.30;;;0.70;;
44110;SDS011;29774;52.664;5.074;2023-08-30T12:26:03;2.45;;;1.20;;
44110;SDS011;29774;52.664;5.074;2023-08-30T12:28:33;2.45;;;1.33;;
44110;SDS011;29774;52.664;5.074;2023-08-30T12:31:03;6.00;;;1.63;;
44110;SDS011;29774;52.664;5.074;2023-08-30T12:33:29;6.00;;;1.25;;
44110;SDS011;29774;52.664;5.074;2023-08-30T12:35:55;3.20;;;1.23;;
44110;SDS011;29774;52.664;5.074;2023-08-30T12:38:22;5.50;;;1.27;;
44110;SDS011;29774;52.664;5.074;2023-08-30T12:40:49;3.47;;;0.95;;
44110;SDS011;29774;52.664;5.074;2023-08-30T12:43:16;1.83;;;0.70;;
44110;SDS011;29774;52.664;5.074;2023-08-30T12:45:42;2.80;;;1.05;;
44110;SDS011;29774;52.664;5.074;2023-08-30T12:48:09;1.50;;;0.60;;
44110;SDS011;29774;52.664;5.074;2023-08-30T12:50:37;1.30;;;0.90;;
44110;SDS011;29774;52.664;5.074;2023-08-30T12:53:04;1.27;;;0.80;;
44110;SDS011;29774;52.664;5.074;2023-08-30T12:55:30;1.75;;;0.63;;
44110;SDS011;29774;52.664;5.074;2023-08-30T12:57:55;0.82;;;0.50;;
44110;SDS011;29774;52.664;5.074;2023-08-30T13:00:21;1.48;;;0.57;;
44110;SDS011;29774;52.664;5.074;2023-08-30T13:02:47;2.50;;;0.80;;
44110;SDS011;29774;52.664;5.074;2023-08-30T13:05:13;1.40;;;0.60;;
44110;SDS011;29774;52.664;5.074;2023-08-30T13:07:39;2.90;;;0.65;;
44110;SDS011;29774;52.664;5.074;2023-08-30T13:10:05;1.67;;;0.57;;
44110;SDS011;29774;52.664;5.074;2023-08-30T13:12:31;2.42;;;1.00;;
44110;SDS011;29774;52.664;5.074;2023-08-30T13:14:57;1.63;;;0.73;;
44110;SDS011;29774;52.664;5.074;2023-08-30T13:17:23;0.70;;;0.60;;
44110;SDS011;29774;52.664;5.074;2023-08-30T13:19:49;0.60;;;0.55;;
44110;SDS011;29774;52.664;5.074;2023-08-30T13:22:14;3.08;;;0.68;;
44110;SDS011;29774;52.664;5.074;2023-08-30T13:24:40;2.35;;;0.60;;
44110;SDS011;29774;52.664;5.074;2023-08-30T13:27:06;2.05;;;0.65;;
44110;SDS011;29774;52.664;5.074;2023-08-30T13:29:31;2.78;;;0.60;;
44110;SDS011;29774;52.664;5.074;2023-08-30T13:31:57;1.92;;;0.70;;
44110;SDS011;29774;52.664;5.074;2023-08-30T13:34:23;1.98;;;0.55;;
44110;SDS011;29774;52.664;5.074;2023-08-30T13:36:48;1.65;;;0.82;;
44110;SDS011;29774;52.664;5.074;2023-08-30T13:39:14;1.98;;;0.68;;
44110;SDS011;29774;52.664;5.074;2023-08-30T13:41:40;3.30;;;0.98;;
44110;SDS011;29774;52.664;5.074;2023-08-30T13:44:06;2.50;;;0.90;;
44110;SDS011;29774;52.664;5.074;2023-08-30T13:46:31;4.10;;;0.98;;
44110;SDS011;29774;52.664;5.074;2023-08-30T13:48:57;2.25;;;0.70;;
44110;SDS011;29774;52.664;5.074;2023-08-30T13:51:23;2.47;;;0.68;;
44110;SDS011;29774;52.664;5.074;2023-08-30T13:53:50;3.22;;;1.15;;
44110;SDS011;29774;52.664;5.074;2023-08-30T13:56:16;2.67;;;0.77;;
44110;SDS011;29774;52.664;5.074;2023-08-30T13:58:43;3.38;;;0.90;;
44110;SDS011;29774;52.664;5.074;2023-08-30T14:01:09;1.67;;;0.80;;
44110;SDS011;29774;52.664;5.074;2023-08-30T14:03:35;3.35;;;1.00;;
44110;SDS011;29774;52.664;5.074;2023-08-30T14:06:01;2.20;;;0.85;;
44110;SDS011;29774;52.664;5.074;2023-08-30T14:08:26;4.63;;;1.00;;
44110;SDS011;29774;52.664;5.074;2023-08-30T14:10:52;2.30;;;1.02;;
44110;SDS011;29774;52.664;5.074;2023-08-30T14:13:19;2.30;;;0.93;;
44110;SDS011;29774;52.664;5.074;2023-08-30T14:15:45;7.90;;;1.02;;
44110;SDS011;29774;52.664;5.074;2023-08-30T14:18:10;4.05;;;1.15;;
44110;SDS011;29774;52.664;5.074;2023-08-30T14:20:36;5.75;;;0.90;;
44110;SDS011;29774;52.664;5.074;2023-08-30T14:23:02;1.83;;;1.10;;
44110;SDS011;29774;52.664;5.074;2023-08-30T14:25:28;1.85;;;0.75;;
44110;SDS011;29774;52.664;5.074;2023-08-30T14:27:54;3.20;;;0.82;;
44110;SDS011;29774;52.664;5.074;2023-08-30T14:30:20;4.80;;;1.02;;
44110;SDS011;29774;52.664;5.074;2023-08-30T14:32:46;2.72;;;1.23;;
44110;SDS011;29774;52.664;5.074;2023-08-30T14:35:12;4.15;;;1.02;;
44110;SDS011;29774;52.664;5.074;2023-08-30T14:37:38;2.35;;;1.00;;
44110;SDS011;29774;52.664;5.074;2023-08-30T14:40:04;4.45;;;1.33;;
44110;SDS011;29774;52.664;5.074;2023-08-30T14:42:30;2.92;;;0.70;;
44110;SDS011;29774;52.664;5.074;2023-08-30T14:44:57;3.83;;;0.70;;
44110;SDS011;29774;52.664;5.074;2023-08-30T14:47:23;3.22;;;0.90;;
44110;SDS011;29774;52.664;5.074;2023-08-30T14:49:49;2.67;;;0.70;;
44110;SDS011;29774;52.664;5.074;2023-08-30T14:52:14;3.35;;;0.88;;